sensor_id;sensor_type;location;lat;lon;timestamp;pressure;altitude;pressure_sealevel;temperature;humidity
10462;BME280;5278;42.656;23.374;2024-03-02T00:00:14;94096.63;;;9.46;99.31
10462;BME280;5278;42.656;23.374;2024-03-02T00:02:41;94099.84;;;9.48;98.68
10462;BME280;5278;42.656;23.374;2024-03-02T00:05:11;94074.13;;;9.32;99.22
10462;BME280;5278;42.656;23.374;2024-03-02T00:07:38;94092.19;;;9.40;99.39
10462;BME280;5278;42.656;23.374;2024-03-02T00:10:09;94090.47;;;9.33;99.49
10462;BME280;5278;42.656;23.374;2024-03-02T00:12:37;94087.44;;;9.44;99.58
10462;BME280;5278;42.656;23.374;2024-03-02T00:15:05;94096.44;;;9.48;99.43
10462;BME280;5278;42.656;23.374;2024-03-02T00:17:33;94090.94;;;9.36;99.38
10462;BME280;5278;42.656;23.374;2024-03-02T00:20:00;94095.22;;;9.44;99.74
10462;BME280;5278;42.656;23.374;2024-03-02T00:22:30;94046.97;;;9.14;99.78
10462;BME280;5278;42.656;23.374;2024-03-02T00:24:57;94084.16;;;9.35;99.67
10462;BME280;5278;42.656;23.374;2024-03-02T00:27:24;94032.06;;;9.01;99.38
10462;BME280;5278;42.656;23.374;2024-03-02T00:29:51;94081.91;;;9.32;99.74
10462;BME280;5278;42.656;23.374;2024-03-02T00:32:18;94088.59;;;9.27;99.95
10462;BME280;5278;42.656;23.374;2024-03-02T00:34:44;94086.75;;;9.21;100.00
10462;BME280;5278;42.656;23.374;2024-03-02T00:37:11;94065.00;;;9.22;100.00
10462;BME280;5278;42.656;23.374;2024-03-02T00:39:40;94072.97;;;9.20;100.00
10462;BME280;5278;42.656;23.374;2024-03-02T00:42:07;94065.81;;;9.22;100.00
10462;BME280;5278;42.656;23.374;2024-03-02T00:44:34;94065.81;;;9.22;100.00
10462;BME280;5278;42.656;23.374;2024-03-02T00:47:02;94081.81;;;9.26;99.83
10462;BME280;5278;42.656;23.374;2024-03-02T00:49:29;94055.66;;;9.21;99.75
10462;BME280;5278;42.656;23.374;2024-03-02T00:51:56;94065.28;;;9.27;98.58
10462;BME280;5278;42.656;23.374;2024-03-02T00:54:24;94066.63;;;9.23;98.69
10462;BME280;5278;42.656;23.374;2024-03-02T00:56:53;94054.72;;;9.28;98.99
10462;BME280;5278;42.656;23.374;2024-03-02T00:59:21;94047.22;;;9.33;99.37
10462;BME280;5278;42.656;23.374;2024-03-02T01:01:48;94051.69;;;9.39;98.60
10462;BME280;5278;42.656;23.374;2024-03-02T01:04:14;94044.34;;;9.43;98.38
10462;BME280;5278;42.656;23.374;2024-03-02T01:06:42;94047.81;;;9.50;98.20
10462;BME280;5278;42.656;23.374;2024-03-02T01:09:09;93967.06;;;8.96;96.78
10462;BME280;5278;42.656;23.374;2024-03-02T01:11:37;94057.47;;;9.56;97.48
10462;BME280;5278;42.656;23.374;2024-03-02T01:14:06;94058.00;;;9.66;97.35
10462;BME280;5278;42.656;23.374;2024-03-02T01:16:33;94050.91;;;9.75;97.08
10462;BME280;5278;42.656;23.374;2024-03-02T01:18:59;94055.34;;;9.81;97.33
10462;BME280;5278;42.656;23.374;2024-03-02T01:21:26;94048.25;;;9.89;96.79
10462;BME280;5278;42.656;23.374;2024-03-02T01:23:53;94050.66;;;9.91;96.24
10462;BME280;5278;42.656;23.374;2024-03-02T01:26:19;94045.34;;;9.99;95.75
10462;BME280;5278;42.656;23.374;2024-03-02T01:28:46;94027.50;;;9.89;95.87
10462;BME280;5278;42.656;23.374;2024-03-02T01:31:14;94036.59;;;10.00;96.16
10462;BME280;5278;42.656;23.374;2024-03-02T01:33:41;94035.16;;;9.98;95.72
10462;BME280;5278;42.656;23.374;2024-03-02T01:36:08;94034.72;;;9.94;94.84
10462;BME280;5278;42.656;23.374;2024-03-02T01:38:34;94030.91;;;9.90;95.09
10462;BME280;5278;42.656;23.374;2024-03-02T01:41:02;94037.44;;;9.86;95.21
10462;BME280;5278;42.656;23.374;2024-03-02T01:43:28;94030.66;;;9.85;95.25
10462;BME280;5278;42.656;23.374;2024-03-02T01:45:55;94023.41;;;9.80;95.52
10462;BME280;5278;42.656;23.374;2024-03-02T01:48:23;94028.47;;;9.88;96.04
10462;BME280;5278;42.656;23.374;2024-03-02T01:50:50;94021.13;;;9.92;95.89
10462;BME280;5278;42.656;23.374;2024-03-02T01:53:17;94027.19;;;9.99;94.95
10462;BME280;5278;42.656;23.374;2024-03-02T01:55:44;94025.81;;;10.03;94.86
10462;BME280;5278;42.656;23.374;2024-03-02T01:58:11;94008.16;;;9.92;95.21
10462;BME280;5278;42.656;23.374;2024-03-02T02:00:38;94021.00;;;10.00;95.67
10462;BME280;5278;42.656;23.374;2024-03-02T02:03:04;94026.81;;;10.02;95.25
10462;BME280;5278;42.656;23.374;2024-03-02T02:05:33;94024.59;;;9.99;96.17
10462;BME280;5278;42.656;23.374;2024-03-02T02:08:01;94021.13;;;9.92;96.83
10462;BME280;5278;42.656;23.374;2024-03-02T02:10:28;93947.19;;;9.39;97.00
10462;BME280;5278;42.656;23.374;2024-03-02T02:12:54;94013.28;;;9.85;97.77
10462;BME280;5278;42.656;23.374;2024-03-02T02:15:25;94018.47;;;9.85;97.96
10462;BME280;5278;42.656;23.374;2024-03-02T02:17:52;94018.91;;;9.89;98.14
10462;BME280;5278;42.656;23.374;2024-03-02T02:20:19;94011.63;;;9.99;97.84
10462;BME280;5278;42.656;23.374;2024-03-02T02:22:57;94015.81;;;10.00;97.42
10462;BME280;5278;42.656;23.374;2024-03-02T02:25:24;94013.22;;;10.00;97.19
10462;BME280;5278;42.656;23.374;2024-03-02T02:27:51;94015.69;;;9.87;97.87
10462;BME280;5278;42.656;23.374;2024-03-02T02:30:22;94016.69;;;9.86;98.48
10462;BME280;5278;42.656;23.374;2024-03-02T02:32:49;93925.38;;;10.53;100.00
10462;BME280;5278;42.656;23.374;2024-03-02T02:35:16;94008.72;;;12.86;97.99
10462;BME280;5278;42.656;23.374;2024-03-02T02:37:43;94003.09;;;13.98;89.20
10462;BME280;5278;42.656;23.374;2024-03-02T02:40:13;94001.31;;;14.97;85.81
10462;BME280;5278;42.656;23.374;2024-03-02T02:42:40;93998.59;;;16.07;78.58
10462;BME280;5278;42.656;23.374;2024-03-02T02:45:07;94006.94;;;16.15;73.91
10462;BME280;5278;42.656;23.374;2024-03-02T02:47:34;94014.31;;;16.48;71.44
10462;BME280;5278;42.656;23.374;2024-03-02T02:50:02;94009.81;;;17.13;64.84
10462;BME280;5278;42.656;23.374;2024-03-02T02:52:32;94009.59;;;16.27;63.10
10462;BME280;5278;42.656;23.374;2024-03-02T02:55:03;94010.03;;;15.28;66.20
10462;BME280;5278;42.656;23.374;2024-03-02T02:57:31;94010.31;;;14.27;70.19
10462;BME280;5278;42.656;23.374;2024-03-02T03:00:01;94012.13;;;13.57;73.50
10462;BME280;5278;42.656;23.374;2024-03-02T03:02:35;94010.28;;;13.00;76.52
10462;BME280;5278;42.656;23.374;2024-03-02T03:05:03;94013.38;;;12.58;78.61
10462;BME280;5278;42.656;23.374;2024-03-02T03:07:29;94009.34;;;12.16;81.11
10462;BME280;5278;42.656;23.374;2024-03-02T03:09:56;94016.13;;;11.84;83.05
10462;BME280;5278;42.656;23.374;2024-03-02T03:12:23;94016.59;;;11.53;84.66
10462;BME280;5278;42.656;23.374;2024-03-02T03:14:51;94014.50;;;11.29;86.25
10462;BME280;5278;42.656;23.374;2024-03-02T03:17:18;94010.44;;;11.13;87.65
10462;BME280;5278;42.656;23.374;2024-03-02T03:19:45;94013.63;;;11.08;88.42
10462;BME280;5278;42.656;23.374;2024-03-02T03:22:12;94012.75;;;11.01;89.34
10462;BME280;5278;42.656;23.374;2024-03-02T03:24:39;94005.31;;;10.85;89.83
10462;BME280;5278;42.656;23.374;2024-03-02T03:27:06;94015.81;;;10.77;91.01
10462;BME280;5278;42.656;23.374;2024-03-02T03:29:32;94022.78;;;10.70;91.23
10462;BME280;5278;42.656;23.374;2024-03-02T03:32:01;94015.56;;;10.65;91.73
10462;BME280;5278;42.656;23.374;2024-03-02T03:34:28;94010.50;;;10.57;92.33
10462;BME280;5278;42.656;23.374;2024-03-02T03:36:55;94018.06;;;10.52;92.98
10462;BME280;5278;42.656;23.374;2024-03-02T03:39:22;94026.06;;;10.51;93.63
10462;BME280;5278;42.656;23.374;2024-03-02T03:41:48;94021.47;;;10.53;93.59
10462;BME280;5278;42.656;23.374;2024-03-02T03:44:15;94024.44;;;10.50;93.73
10462;BME280;5278;42.656;23.374;2024-03-02T03:46:42;94023.59;;;10.43;94.10
10462;BME280;5278;42.656;23.374;2024-03-02T03:49:10;94018.38;;;10.43;94.54
10462;BME280;5278;42.656;23.374;2024-03-02T03:51:36;94016.78;;;10.42;94.61
10462;BME280;5278;42.656;23.374;2024-03-02T03:54:03;93967.50;;;9.99;94.50
10462;BME280;5278;42.656;23.374;2024-03-02T03:56:30;94022.75;;;10.35;94.48
10462;BME280;5278;42.656;23.374;2024-03-02T03:58:56;94020.16;;;10.35;94.37
10462;BME280;5278;42.656;23.374;2024-03-02T04:01:25;94011.97;;;10.39;94.34
10462;BME280;5278;42.656;23.374;2024-03-02T04:03:51;94015.94;;;10.34;94.85
10462;BME280;5278;42.656;23.374;2024-03-02T04:06:19;94014.19;;;10.42;94.51
10462;BME280;5278;42.656;23.374;2024-03-02T04:08:46;94020.75;;;10.38;94.58
10462;BME280;5278;42.656;23.374;2024-03-02T04:11:13;94011.34;;;10.36;94.72
10462;BME280;5278;42.656;23.374;2024-03-02T04:13:40;94021.88;;;10.28;94.57
10462;BME280;5278;42.656;23.374;2024-03-02T04:16:07;94009.03;;;10.20;95.37
10462;BME280;5278;42.656;23.374;2024-03-02T04:18:33;93996.53;;;10.09;94.94
10462;BME280;5278;42.656;23.374;2024-03-02T04:21:00;94016.69;;;10.28;94.61
10462;BME280;5278;42.656;23.374;2024-03-02T04:23:28;94010.44;;;10.23;94.50
10462;BME280;5278;42.656;23.374;2024-03-02T04:25:55;94016.25;;;10.25;94.68
10462;BME280;5278;42.656;23.374;2024-03-02T04:28:21;94002.66;;;10.23;94.40
10462;BME280;5278;42.656;23.374;2024-03-02T04:30:48;94021.50;;;10.31;94.45
10462;BME280;5278;42.656;23.374;2024-03-02T04:33:15;94025.91;;;10.31;94.36
10462;BME280;5278;42.656;23.374;2024-03-02T04:35:41;94023.09;;;10.32;94.35
10462;BME280;5278;42.656;23.374;2024-03-02T04:38:08;94021.41;;;10.18;93.97
10462;BME280;5278;42.656;23.374;2024-03-02T04:40:36;94019.78;;;10.17;95.16
10462;BME280;5278;42.656;23.374;2024-03-02T04:43:03;94018.16;;;10.16;95.08
10462;BME280;5278;42.656;23.374;2024-03-02T04:45:30;94003.28;;;10.04;94.85
10462;BME280;5278;42.656;23.374;2024-03-02T04:47:56;94025.69;;;10.11;95.51
10462;BME280;5278;42.656;23.374;2024-03-02T04:50:23;94032.47;;;10.12;95.59
10462;BME280;5278;42.656;23.374;2024-03-02T04:52:50;94025.88;;;10.10;95.91
10462;BME280;5278;42.656;23.374;2024-03-02T04:55:16;94030.28;;;10.09;96.33
10462;BME280;5278;42.656;23.374;2024-03-02T04:57:56;94027.28;;;10.12;96.60
10462;BME280;5278;42.656;23.374;2024-03-02T05:00:23;94033.28;;;10.13;97.03
10462;BME280;5278;42.656;23.374;2024-03-02T05:02:49;94026.13;;;10.15;97.46
10462;BME280;5278;42.656;23.374;2024-03-02T05:05:16;94032.31;;;10.14;97.27
10462;BME280;5278;42.656;23.374;2024-03-02T05:07:43;94037.69;;;10.12;97.51
10462;BME280;5278;42.656;23.374;2024-03-02T05:10:10;94033.28;;;10.13;97.13
10462;BME280;5278;42.656;23.374;2024-03-02T05:12:37;94037.06;;;10.10;97.73
10462;BME280;5278;42.656;23.374;2024-03-02T05:15:23;94032.31;;;10.14;98.29
10462;BME280;5278;42.656;23.374;2024-03-02T05:17:49;94035.72;;;10.14;98.11
10462;BME280;5278;42.656;23.374;2024-03-02T05:20:15;94034.47;;;10.10;98.34
10462;BME280;5278;42.656;23.374;2024-03-02T05:22:42;94039.91;;;10.15;97.64
10462;BME280;5278;42.656;23.374;2024-03-02T05:25:09;94044.47;;;10.13;98.28
10462;BME280;5278;42.656;23.374;2024-03-02T05:27:36;94040.47;;;10.11;98.01
10462;BME280;5278;42.656;23.374;2024-03-02T05:30:03;94051.63;;;10.11;97.81
10462;BME280;5278;42.656;23.374;2024-03-02T05:32:33;94056.13;;;10.17;98.18
10462;BME280;5278;42.656;23.374;2024-03-02T05:34:59;94062.75;;;10.20;97.57
10462;BME280;5278;42.656;23.374;2024-03-02T05:37:26;94053.97;;;10.21;98.02
10462;BME280;5278;42.656;23.374;2024-03-02T05:39:53;94073.41;;;10.31;98.27
10462;BME280;5278;42.656;23.374;2024-03-02T05:42:20;94065.88;;;10.36;99.27
10462;BME280;5278;42.656;23.374;2024-03-02T05:44:47;94065.13;;;10.43;99.86
10462;BME280;5278;42.656;23.374;2024-03-02T05:47:13;94069.41;;;10.50;100.00
10462;BME280;5278;42.656;23.374;2024-03-02T05:49:41;94074.16;;;10.47;100.00
10462;BME280;5278;42.656;23.374;2024-03-02T05:52:09;94067.56;;;10.44;99.77
10462;BME280;5278;42.656;23.374;2024-03-02T05:54:36;94073.91;;;10.42;99.75
10462;BME280;5278;42.656;23.374;2024-03-02T05:57:02;94034.38;;;10.18;99.54
10462;BME280;5278;42.656;23.374;2024-03-02T05:59:47;94081.75;;;10.48;99.68
10462;BME280;5278;42.656;23.374;2024-03-02T06:02:14;94080.88;;;10.41;99.70
10462;BME280;5278;42.656;23.374;2024-03-02T06:04:42;94070.28;;;10.36;99.25
10462;BME280;5278;42.656;23.374;2024-03-02T06:07:09;94082.72;;;10.41;99.35
10462;BME280;5278;42.656;23.374;2024-03-02T06:09:35;94076.16;;;10.45;99.65
10462;BME280;5278;42.656;23.374;2024-03-02T06:12:03;94070.88;;;10.38;99.46
10462;BME280;5278;42.656;23.374;2024-03-02T06:14:30;94075.09;;;10.39;99.43
10462;BME280;5278;42.656;23.374;2024-03-02T06:16:57;94069.84;;;10.32;99.77
10462;BME280;5278;42.656;23.374;2024-03-02T06:19:24;94073.31;;;10.40;99.38
10462;BME280;5278;42.656;23.374;2024-03-02T06:21:52;94077.44;;;10.34;99.87
10462;BME280;5278;42.656;23.374;2024-03-02T06:24:19;94084.03;;;10.36;100.00
10462;BME280;5278;42.656;23.374;2024-03-02T06:26:46;94079.25;;;10.33;100.00
10462;BME280;5278;42.656;23.374;2024-03-02T06:29:12;94090.09;;;10.22;100.00
10462;BME280;5278;42.656;23.374;2024-03-02T06:31:39;94085.16;;;10.27;100.00
10462;BME280;5278;42.656;23.374;2024-03-02T06:34:06;94085.72;;;10.23;100.00
10462;BME280;5278;42.656;23.374;2024-03-02T06:36:33;94088.50;;;10.21;100.00
10462;BME280;5278;42.656;23.374;2024-03-02T06:39:02;94093.25;;;10.18;100.00
10462;BME280;5278;42.656;23.374;2024-03-02T06:41:29;94089.31;;;10.22;100.00
10462;BME280;5278;42.656;23.374;2024-03-02T06:43:56;94051.69;;;9.97;100.00
10462;BME280;5278;42.656;23.374;2024-03-02T06:46:25;94091.31;;;10.20;100.00
10462;BME280;5278;42.656;23.374;2024-03-02T06:48:51;94092.56;;;10.09;100.00
10462;BME280;5278;42.656;23.374;2024-03-02T06:51:18;94091.47;;;10.18;100.00
10462;BME280;5278;42.656;23.374;2024-03-02T06:53:45;94057.91;;;9.96;100.00
10462;BME280;5278;42.656;23.374;2024-03-02T06:56:13;94092.19;;;10.12;100.00
10462;BME280;5278;42.656;23.374;2024-03-02T06:58:40;94100.88;;;10.19;100.00
10462;BME280;5278;42.656;23.374;2024-03-02T07:01:08;94099.91;;;10.20;100.00
10462;BME280;5278;42.656;23.374;2024-03-02T07:03:36;94107.84;;;10.19;100.00
10462;BME280;5278;42.656;23.374;2024-03-02T07:06:04;94066.59;;;9.88;100.00
10462;BME280;5278;42.656;23.374;2024-03-02T07:08:31;94112.88;;;10.20;100.00
10462;BME280;5278;42.656;23.374;2024-03-02T07:10:58;94106.25;;;10.18;100.00
10462;BME280;5278;42.656;23.374;2024-03-02T07:13:26;94111.78;;;10.15;100.00
10462;BME280;5278;42.656;23.374;2024-03-02T07:15:53;94103.75;;;10.10;100.00
10462;BME280;5278;42.656;23.374;2024-03-02T07:18:48;94109.00;;;10.16;100.00
10462;BME280;5278;42.656;23.374;2024-03-02T07:21:17;94112.06;;;10.20;100.00
10462;BME280;5278;42.656;23.374;2024-03-02T07:23:43;94114.44;;;10.21;100.00
10462;BME280;5278;42.656;23.374;2024-03-02T07:26:10;94109.97;;;10.30;100.00
10462;BME280;5278;42.656;23.374;2024-03-02T07:28:38;94112.19;;;10.33;100.00
10462;BME280;5278;42.656;23.374;2024-03-02T07:31:06;94111.88;;;10.43;100.00
10462;BME280;5278;42.656;23.374;2024-03-02T07:33:32;94114.72;;;10.48;100.00
10462;BME280;5278;42.656;23.374;2024-03-02T07:36:00;94109.59;;;10.54;100.00
10462;BME280;5278;42.656;23.374;2024-03-02T07:38:27;94114.72;;;10.48;100.00
10462;BME280;5278;42.656;23.374;2024-03-02T07:40:54;94122.69;;;10.46;100.00
10462;BME280;5278;42.656;23.374;2024-03-02T07:43:21;94118.19;;;10.33;100.00
10462;BME280;5278;42.656;23.374;2024-03-02T07:45:49;94117.97;;;10.14;100.00
10462;BME280;5278;42.656;23.374;2024-03-02T07:48:16;94123.94;;;10.14;100.00
10462;BME280;5278;42.656;23.374;2024-03-02T07:50:43;94125.50;;;10.09;100.00
10462;BME280;5278;42.656;23.374;2024-03-02T07:53:10;94124.31;;;10.11;100.00
10462;BME280;5278;42.656;23.374;2024-03-02T07:55:36;94126.41;;;10.16;100.00
10462;BME280;5278;42.656;23.374;2024-03-02T07:58:03;94123.16;;;10.14;100.00
10462;BME280;5278;42.656;23.374;2024-03-02T08:00:30;94126.84;;;10.19;100.00
10462;BME280;5278;42.656;23.374;2024-03-02T08:02:58;94125.03;;;10.20;100.00
10462;BME280;5278;42.656;23.374;2024-03-02T08:05:25;94137.66;;;10.23;100.00
10462;BME280;5278;42.656;23.374;2024-03-02T08:07:52;94136.84;;;10.22;100.00
10462;BME280;5278;42.656;23.374;2024-03-02T08:10:19;94140.91;;;10.31;100.00
10462;BME280;5278;42.656;23.374;2024-03-02T08:12:46;94138.94;;;10.33;100.00
10462;BME280;5278;42.656;23.374;2024-03-02T08:15:13;94141.00;;;10.38;100.00
10462;BME280;5278;42.656;23.374;2024-03-02T08:17:40;94115.81;;;10.17;100.00
10462;BME280;5278;42.656;23.374;2024-03-02T08:20:11;94139.88;;;10.47;100.00
10462;BME280;5278;42.656;23.374;2024-03-02T08:22:39;94149.44;;;10.47;100.00
10462;BME280;5278;42.656;23.374;2024-03-02T08:25:07;94142.19;;;10.35;100.00
10462;BME280;5278;42.656;23.374;2024-03-02T08:27:35;94135.53;;;10.33;100.00
10462;BME280;5278;42.656;23.374;2024-03-02T08:30:02;94132.72;;;10.49;100.00
10462;BME280;5278;42.656;23.374;2024-03-02T08:32:31;94140.00;;;10.60;100.00
10462;BME280;5278;42.656;23.374;2024-03-02T08:34:58;94135.88;;;10.66;100.00
10462;BME280;5278;42.656;23.374;2024-03-02T08:37:26;94107.06;;;10.61;100.00
10462;BME280;5278;42.656;23.374;2024-03-02T08:39:53;94135.81;;;10.87;100.00
10462;BME280;5278;42.656;23.374;2024-03-02T08:42:20;94115.53;;;10.76;100.00
10462;BME280;5278;42.656;23.374;2024-03-02T08:44:46;94133.53;;;10.99;100.00
10462;BME280;5278;42.656;23.374;2024-03-02T08:47:13;94133.00;;;11.10;100.00
10462;BME280;5278;42.656;23.374;2024-03-02T08:49:40;94133.03;;;11.16;99.91
10462;BME280;5278;42.656;23.374;2024-03-02T08:52:06;94134.53;;;11.32;99.05
10462;BME280;5278;42.656;23.374;2024-03-02T08:54:35;94126.25;;;11.50;98.68
10462;BME280;5278;42.656;23.374;2024-03-02T08:57:02;94125.13;;;11.72;97.43
10462;BME280;5278;42.656;23.374;2024-03-02T08:59:28;94123.84;;;11.96;95.75
10462;BME280;5278;42.656;23.374;2024-03-02T09:01:55;94135.53;;;12.13;94.61
10462;BME280;5278;42.656;23.374;2024-03-02T09:04:22;94120.53;;;12.22;92.60
10462;BME280;5278;42.656;23.374;2024-03-02T09:06:49;94137.78;;;12.36;91.40
10462;BME280;5278;42.656;23.374;2024-03-02T09:09:15;94136.19;;;12.41;89.94
10462;BME280;5278;42.656;23.374;2024-03-02T09:11:43;94134.00;;;12.51;89.86
10462;BME280;5278;42.656;23.374;2024-03-02T09:14:12;94137.44;;;12.59;88.73
10462;BME280;5278;42.656;23.374;2024-03-02T09:16:40;94129.81;;;12.57;86.45
10462;BME280;5278;42.656;23.374;2024-03-02T09:19:06;94131.63;;;12.57;86.06
10462;BME280;5278;42.656;23.374;2024-03-02T09:21:35;94127.44;;;12.69;86.06
10462;BME280;5278;42.656;23.374;2024-03-02T09:24:02;94141.84;;;12.71;85.55
10462;BME280;5278;42.656;23.374;2024-03-02T09:26:29;94033.59;;;12.10;85.78
10462;BME280;5278;42.656;23.374;2024-03-02T09:28:57;94139.44;;;12.76;86.31
10462;BME280;5278;42.656;23.374;2024-03-02T09:31:24;94156.72;;;12.77;85.77
10462;BME280;5278;42.656;23.374;2024-03-02T09:33:50;94152.91;;;12.73;84.34
10462;BME280;5278;42.656;23.374;2024-03-02T09:36:17;94152.28;;;12.71;83.40
10462;BME280;5278;42.656;23.374;2024-03-02T09:38:44;94155.09;;;12.76;83.80
10462;BME280;5278;42.656;23.374;2024-03-02T09:41:12;94151.09;;;12.80;85.52
10462;BME280;5278;42.656;23.374;2024-03-02T09:43:39;94150.47;;;12.72;85.99
10462;BME280;5278;42.656;23.374;2024-03-02T09:46:09;94148.88;;;12.64;86.87
10462;BME280;5278;42.656;23.374;2024-03-02T09:48:35;94150.84;;;12.56;87.56
10462;BME280;5278;42.656;23.374;2024-03-02T09:51:04;94154.66;;;12.40;88.43
10462;BME280;5278;42.656;23.374;2024-03-02T09:53:32;94147.25;;;12.43;89.06
10462;BME280;5278;42.656;23.374;2024-03-02T09:56:00;94153.03;;;12.39;88.86
10462;BME280;5278;42.656;23.374;2024-03-02T09:58:27;94146.19;;;12.31;89.05
10462;BME280;5278;42.656;23.374;2024-03-02T10:00:54;94148.16;;;12.16;89.55
10462;BME280;5278;42.656;23.374;2024-03-02T10:03:22;94138.75;;;12.15;89.63
10462;BME280;5278;42.656;23.374;2024-03-02T10:05:49;94143.63;;;12.38;90.05
10462;BME280;5278;42.656;23.374;2024-03-02T10:08:17;94141.44;;;12.48;90.02
10462;BME280;5278;42.656;23.374;2024-03-02T10:10:42;94137.06;;;12.55;89.31
10462;BME280;5278;42.656;23.374;2024-03-02T10:13:11;94146.88;;;12.73;89.75
10462;BME280;5278;42.656;23.374;2024-03-02T10:15:39;94141.06;;;12.84;90.18
10462;BME280;5278;42.656;23.374;2024-03-02T10:18:09;94155.31;;;12.94;90.41
10462;BME280;5278;42.656;23.374;2024-03-02T10:20:39;94142.28;;;12.94;89.79
10462;BME280;5278;42.656;23.374;2024-03-02T10:23:13;94153.09;;;12.91;89.10
10462;BME280;5278;42.656;23.374;2024-03-02T10:25:40;94150.13;;;12.94;89.41
10462;BME280;5278;42.656;23.374;2024-03-02T10:28:07;94145.88;;;13.07;89.34
10462;BME280;5278;42.656;23.374;2024-03-02T10:30:34;94148.09;;;13.10;89.67
10462;BME280;5278;42.656;23.374;2024-03-02T10:33:01;94136.47;;;13.12;90.01
10462;BME280;5278;42.656;23.374;2024-03-02T10:35:28;94134.66;;;13.06;88.79
10462;BME280;5278;42.656;23.374;2024-03-02T10:37:58;94141.88;;;13.04;88.88
10462;BME280;5278;42.656;23.374;2024-03-02T10:40:26;94155.91;;;12.97;88.34
10462;BME280;5278;42.656;23.374;2024-03-02T10:42:53;94118.81;;;12.81;88.69
10462;BME280;5278;42.656;23.374;2024-03-02T10:45:23;94139.06;;;12.92;89.23
10462;BME280;5278;42.656;23.374;2024-03-02T10:47:50;94134.44;;;12.81;89.97
10462;BME280;5278;42.656;23.374;2024-03-02T10:50:17;94121.00;;;12.58;89.76
10462;BME280;5278;42.656;23.374;2024-03-02T10:52:44;94139.84;;;12.67;90.00
10462;BME280;5278;42.656;23.374;2024-03-02T10:55:13;94124.22;;;12.60;90.58
10462;BME280;5278;42.656;23.374;2024-03-02T10:57:50;94135.25;;;12.62;90.92
10462;BME280;5278;42.656;23.374;2024-03-02T11:00:18;94130.22;;;12.54;91.23
10462;BME280;5278;42.656;23.374;2024-03-02T11:02:51;94124.41;;;12.59;93.03
10462;BME280;5278;42.656;23.374;2024-03-02T11:05:27;94123.59;;;12.51;93.60
10462;BME280;5278;42.656;23.374;2024-03-02T11:08:00;94130.81;;;12.56;91.09
10462;BME280;5278;42.656;23.374;2024-03-02T11:10:34;94125.41;;;12.58;91.15
10462;BME280;5278;42.656;23.374;2024-03-02T11:13:05;94127.59;;;12.61;91.33
10462;BME280;5278;42.656;23.374;2024-03-02T11:15:33;94127.41;;;12.62;91.93
10462;BME280;5278;42.656;23.374;2024-03-02T11:18:01;94125.22;;;12.66;92.72
10462;BME280;5278;42.656;23.374;2024-03-02T11:20:30;94128.41;;;12.61;93.20
10462;BME280;5278;42.656;23.374;2024-03-02T11:22:57;94123.63;;;12.58;93.05
10462;BME280;5278;42.656;23.374;2024-03-02T11:25:32;94117.59;;;12.64;93.46
10462;BME280;5278;42.656;23.374;2024-03-02T11:28:00;94122.81;;;12.71;93.94
10462;BME280;5278;42.656;23.374;2024-03-02T11:30:49;94121.63;;;12.60;92.34
10462;BME280;5278;42.656;23.374;2024-03-02T11:33:23;94115.19;;;12.56;92.42
10462;BME280;5278;42.656;23.374;2024-03-02T11:35:50;94118.19;;;12.53;92.21
10462;BME280;5278;42.656;23.374;2024-03-02T11:38:17;94116.56;;;12.45;91.92
10462;BME280;5278;42.656;23.374;2024-03-02T11:40:46;94117.16;;;12.34;92.41
10462;BME280;5278;42.656;23.374;2024-03-02T11:43:13;94123.56;;;12.32;92.69
10462;BME280;5278;42.656;23.374;2024-03-02T11:45:42;94116.16;;;12.29;92.81
10462;BME280;5278;42.656;23.374;2024-03-02T11:48:14;94128.56;;;12.27;93.09
10462;BME280;5278;42.656;23.374;2024-03-02T11:50:42;94126.53;;;12.22;93.11
10462;BME280;5278;42.656;23.374;2024-03-02T11:53:10;94120.53;;;12.22;93.51
10462;BME280;5278;42.656;23.374;2024-03-02T11:55:38;94123.34;;;12.20;94.20
10462;BME280;5278;42.656;23.374;2024-03-02T11:58:07;94120.31;;;12.17;94.35
10462;BME280;5278;42.656;23.374;2024-03-02T12:00:34;94117.34;;;12.20;94.62
10462;BME280;5278;42.656;23.374;2024-03-02T12:03:02;94128.56;;;12.27;95.09
10462;BME280;5278;42.656;23.374;2024-03-02T12:05:30;94116.16;;;12.29;95.08
10462;BME280;5278;42.656;23.374;2024-03-02T12:07:57;94122.16;;;12.29;94.67
10462;BME280;5278;42.656;23.374;2024-03-02T12:10:24;94083.44;;;12.06;94.74
10462;BME280;5278;42.656;23.374;2024-03-02T12:12:57;94125.38;;;12.38;94.61
10462;BME280;5278;42.656;23.374;2024-03-02T12:15:27;94114.97;;;12.51;92.80
10462;BME280;5278;42.656;23.374;2024-03-02T12:17:54;94116.19;;;12.55;91.36
10462;BME280;5278;42.656;23.374;2024-03-02T12:20:21;94127.41;;;12.62;90.14
10462;BME280;5278;42.656;23.374;2024-03-02T12:22:49;94123.41;;;12.73;89.01
10462;BME280;5278;42.656;23.374;2024-03-02T12:25:17;94120.81;;;12.79;88.82
10462;BME280;5278;42.656;23.374;2024-03-02T12:27:45;94126.63;;;12.81;88.85
10462;BME280;5278;42.656;23.374;2024-03-02T12:30:12;94080.91;;;12.66;88.72
10462;BME280;5278;42.656;23.374;2024-03-02T12:32:41;94121.22;;;12.89;88.78
10462;BME280;5278;42.656;23.374;2024-03-02T12:35:08;94119.00;;;12.86;88.53
10462;BME280;5278;42.656;23.374;2024-03-02T12:37:42;94104.16;;;12.80;88.95
10462;BME280;5278;42.656;23.374;2024-03-02T12:40:10;94122.03;;;12.90;89.99
10462;BME280;5278;42.656;23.374;2024-03-02T12:42:37;94128.41;;;13.01;89.49
10462;BME280;5278;42.656;23.374;2024-03-02T12:45:05;94120.41;;;13.02;87.50
10462;BME280;5278;42.656;23.374;2024-03-02T12:47:32;94129.03;;;13.03;87.16
10462;BME280;5278;42.656;23.374;2024-03-02T12:50:01;94122.59;;;13.05;85.91
10462;BME280;5278;42.656;23.374;2024-03-02T12:52:28;94122.63;;;12.99;85.86
10462;BME280;5278;42.656;23.374;2024-03-02T12:54:55;94120.63;;;12.87;85.64
10462;BME280;5278;42.656;23.374;2024-03-02T12:57:25;94126.84;;;12.93;85.13
10462;BME280;5278;42.656;23.374;2024-03-02T12:59:52;94125.03;;;12.93;85.12
10462;BME280;5278;42.656;23.374;2024-03-02T13:02:23;94132.06;;;12.93;85.64